Bodega Marine Reserve, California Weather observations

Data are for 10 minute period ending at time listed.
 Day   Time   Solar   Ave.   Ave.  Ave.  Vector  Max.   Baro.   Total    
  of    of     Rad.   Air    Rel.  Wind   Wind   Wind  Press.  Precip.   
Year   Day            Temp.  Hum.  Speed  Dir.   Gust                    
2014   (PST)  Kw/m2    F      %     mph   deg.    mph    mb.     in.     
-------------------------------------------------------------------------
 355    8:10   0.01   59.0    98    7.8   276    12.6   1022.7    0.01 
 355    8:20   0.01   59.0    98    7.5   289    10.4   1022.7    0.01 
 355    8:30   0.01   59.1    98    8.2   292    11.8   1023.0    0.00 
 355    8:40   0.02   59.1    98    9.1   293    12.6   1023.0    0.01 
 355    8:50   0.05   59.1    98   10.1   299    13.7   1023.0    0.00 
 355    9:00   0.05   59.1    98    8.7   294    11.8   1023.4    0.00 
 355    9:10   0.07   59.2    98    8.3   295    11.8   1023.4    0.00 
 355    9:20   0.07   59.3    98    7.3   290    10.7   1023.4    0.00 
 355    9:30   0.15   59.6    98    7.7   288    12.3   1023.4    0.00 
 355    9:40   0.12   59.8    97    8.1   287    11.9   1023.4    0.00 
 355    9:50   0.18   60.0    98    7.4   287    10.3   1023.4    0.00 
 355   10:00   0.15   60.1    97    8.4   285    10.8   1023.4    0.00 
 355   10:10   0.16   60.1    97    8.1   283    10.4   1023.4    0.00 
 355   10:20   0.17   60.1    97    8.7   276    11.6   1023.4    0.00 
 355   10:30   0.18   60.2    97    8.8   277    11.8   1023.4    0.00 
 355   10:40   0.12   60.1    97    9.2   275    13.2   1023.4    0.00 
 355   10:50   0.18   60.0    97   10.2   272    12.7   1023.4    0.00 
 355   11:00   0.16   60.2    97    9.3   282    12.6   1023.4    0.00 
 355   11:10   0.17   60.3    97    9.6   285    13.6   1023.4    0.00 
 355   11:20   0.12   60.5    97    8.3   288    13.1   1023.4    0.00 
 355   11:30   0.10   60.2    97   10.1   290    14.2   1023.4    0.00 
 355   11:40   0.07   60.1    97    9.3   292    13.5   1023.4    0.00 
 355   11:50   0.12   60.3    97    8.9   295    15.4   1023.0    0.00 
 355   12:00   0.12   60.3    97   11.1   298    15.6   1023.0    0.00 
 355   12:10   0.14   60.3    97   11.6   299    16.2   1023.0    0.00 
 355   12:20   0.21   60.5    97   11.6   298    15.2   1023.0    0.00 
 355   12:30   0.18   60.6    97   11.1   296    15.1   1022.7    0.00 
 355   12:40   0.15   60.5    97   11.6   299    16.3   1022.7    0.00 
 355   12:50   0.23   60.5    97   12.2   298    18.7   1022.7    0.00 
 355   13:00   0.19   60.6    97   11.9   298    16.7   1022.7    0.00 
 355   13:10   0.12   60.7    96    9.3   299    15.1   1022.7    0.00 
 355   13:20   0.13   60.4    96   10.6   296    15.5   1022.7    0.00 
 355   13:30   0.13   60.4    96   10.0   293    15.7   1022.7    0.00 
 355   13:40   0.07   60.2    96   11.3   299    15.2   1022.7    0.00 
 355   13:50   0.09   60.2    96   10.3   300    13.5   1022.7    0.00 
 355   14:00   0.12   60.3    96   10.3   296    14.8   1022.4    0.00 
 355   14:10   0.14   60.4    96   10.8   300    15.8   1022.0    0.00 
 355   14:20   0.11   60.5    96   12.9   305    17.5   1022.0    0.00 
 355   14:30   0.08   60.2    96   12.7   303    18.9   1022.0    0.00 
 355   14:40   0.07   60.0    96   10.8   306    15.6   1022.4    0.00 
 355   14:50   0.08   60.1    96   10.9   305    15.6   1022.4    0.00 
 355   15:00   0.06   60.0    96   10.2   307    15.1   1022.0    0.00 
 355   15:10   0.08   60.0    96   10.9   310    15.9   1022.0    0.00 
 355   15:20   0.07   59.9    96   14.7   311    21.2   1022.4    0.00 
 355   15:30   0.06   59.8    96   12.9   312    18.3   1022.4    0.00 
 355   15:40   0.06   59.9    96   13.5   308    19.1   1022.4    0.00 
 355   15:50   0.04   59.8    96   14.7   309    23.3   1022.4    0.00 
 355   16:00   0.03   59.7    96   14.9   309    22.6   1022.4    0.00 
 355   16:10   0.02   59.6    96   14.9   309    22.0   1022.4    0.00 
 355   16:20   0.01   59.6    96   15.3   309    21.3   1022.4    0.00 
 355   16:30   0.01   59.6    96   16.0   307    22.7   1022.4    0.00 
 355   16:40   0.01   59.5    96   15.1   309    20.5   1022.4    0.00 
 355   16:50   0.01   59.4    96   15.5   310    21.5   1022.4    0.00 
 355   17:00   0.00   59.2    96   17.1   312    25.7   1022.4    0.00 
 355   17:10   0.00   59.1    96   17.4   312    23.0   1022.4    0.00 
 355   17:20   0.00   59.0    96   17.6   311    24.1   1022.4    0.00 
 355   17:30   0.00   59.0    96   16.7   312    24.0   1022.4    0.00 
 355   17:40   0.00   58.9    96   17.1   311    24.5   1022.4    0.00 
 355   17:50   0.00   59.0    96   16.1   312    22.2   1022.4    0.00 
 355   18:00   0.00   59.0    96   17.0   314    23.4   1022.4    0.00 
 355   18:10   0.00   59.0    96   16.1   311    21.1   1022.4    0.00 
 355   18:20   0.00   58.8    96   16.1   308    21.8   1022.4    0.00 
 355   18:30   0.00   58.8    96   16.6   310    22.5   1022.7    0.00 
 355   18:40   0.00   58.8    96   17.3   306    26.1   1022.7    0.00 
 355   18:50   0.00   58.8    96   16.6   309    23.3   1022.7    0.00 
 355   19:00   0.00   58.6    96   18.2   305    25.7   1022.7    0.00 
 355   19:10   0.00   58.6    96   17.1   304    21.9   1022.7    0.00 
 355   19:20   0.00   58.6    96   16.4   306    22.2   1022.7    0.00 
 355   19:30   0.00   58.6    96   16.7   306    21.9   1022.7    0.00 
 355   19:40   0.00   58.5    96   16.7   305    23.8   1022.7    0.00 
 355   19:50   0.00   58.5    96   17.5   306    23.9   1023.0    0.00 
 355   20:00   0.00   58.5    96   16.3   309    22.6   1022.7    0.00 
 355   20:10   0.00   58.5    96   16.1   308    22.0   1023.0    0.00 
 355   20:20   0.00   58.5    96   16.7   308    22.1   1022.7    0.00 
 355   20:30   0.00   58.5    96   17.7   307    22.9   1022.7    0.00 
 355   20:40   0.00   58.4    96   16.5   306    22.9   1022.7    0.00 
 355   20:50   0.00   58.4    96   16.0   306    21.9   1022.7    0.00 
 355   21:00   0.00   58.3    96   15.7   306    21.0   1022.7    0.00 
 355   21:10   0.00   58.3    96   15.6   306    20.8   1022.7    0.00 
 355   21:20   0.00   58.3    97   16.2   304    20.5   1022.7    0.00 
 355   21:30   0.00   58.1    97   17.5   303    23.7   1022.7    0.00 
 355   21:40   0.00   58.0    97   15.5   304    22.9   1022.7    0.00 
 355   21:50   0.00   58.0    97   17.1   303    21.8   1022.7    0.00 
 355   22:00   0.00   58.2    97   15.9   303    23.4   1022.7    0.00 
 355   22:10   0.00   58.1    97   16.4   303    23.5   1022.7    0.00 
 355   22:20   0.00   57.9    97   15.2   303    20.5   1022.7    0.00 
 355   22:30   0.00   57.8    97   15.1   305    21.5   1022.7    0.00 
 355   22:40   0.00   57.8    97   16.0   304    21.4   1022.7    0.00 
 355   22:50   0.00   57.7    97   14.9   304    19.5   1022.7    0.00 
 355   23:00   0.00   57.8    97   14.9   308    19.8   1022.7    0.00 
 355   23:10   0.00   57.7    97   13.4   305    18.3   1022.7    0.00 
 355   23:20   0.00   57.6    97   11.7   306    16.5   1022.7    0.00 
 355   23:30   0.00   57.5    97   13.1   304    17.7   1022.7    0.00 
 355   23:40   0.00   57.4    97   11.8   305    15.4   1022.7    0.00 
 355   23:50   0.00   57.4    97   11.9   306    16.7   1022.7    0.00 
 356    0:00   0.00   57.4    97   12.5   308    16.4   1022.7    0.00 
 356    0:10   0.00   57.6    97   13.2   306    18.4   1022.7    0.00 
 356    0:20   0.00   57.6    97   16.5   308    22.6   1022.4    0.00 
 356    0:30   0.00   57.6    97   16.1   307    21.0   1022.4    0.00 
 356    0:40   0.00   57.5    97   17.2   305    21.5   1022.0    0.00 
 356    0:50   0.00   57.4    97   17.1   306    22.7   1022.0    0.00 
 356    1:00   0.00   57.4    97   16.0   306    20.9   1022.0    0.00 
 356    1:10   0.00   57.4    97   14.5   309    19.9   1022.0    0.00 
 356    1:20   0.00   57.4    97   11.8   321    16.1   1022.0    0.00 
 356    1:30   0.00   57.5    97   12.0   323    16.3   1022.0    0.00 
 356    1:40   0.00   57.4    97   11.7   312    15.1   1022.0    0.00 
 356    1:50   0.00   57.3    97   11.8   314    14.9   1022.0    0.00 
 356    2:00   0.00   57.2    96    9.9   317    13.2   1022.4    0.00 
 356    2:10   0.00   57.2    96   10.3   311    15.8   1022.4    0.00 
 356    2:20   0.00   57.7    96   10.9   308    15.4   1022.4    0.00 
 356    2:30   0.00   57.5    96    9.0   315    12.9   1022.4    0.00 
 356    2:40   0.00   57.1    96    7.3   316     9.5   1022.4    0.00 
 356    2:50   0.00   57.4    96    9.7   314    15.5   1022.4    0.00 
 356    3:00   0.00   57.8    96   14.6   312    19.6   1022.4    0.00 
 356    3:10   0.00   57.9    97   14.4   316    19.6   1022.0    0.00 
 356    3:20   0.00   57.9    97   15.3   317    20.3   1022.0    0.00 
 356    3:30   0.00   57.9    97   14.6   317    20.6   1022.0    0.00 
 356    3:40   0.00   57.8    97   14.2   322    19.6   1022.0    0.00 
 356    3:50   0.00   57.5    96   11.8   320    16.1   1022.0    0.00 
 356    4:00   0.00   57.3    96   11.2   316    15.9   1022.0    0.00 
 356    4:10   0.00   57.2    96   10.4   316    13.3   1022.0    0.00 
 356    4:20   0.00   57.3    96   11.1   313    14.3   1022.0    0.00 
 356    4:30   0.00   57.2    96   11.5   314    15.9   1021.7    0.00 
 356    4:40   0.00   57.3    96   12.5   317    17.1   1021.7    0.00 
 356    4:50   0.00   57.5    96   12.4   326    16.3   1021.7    0.00 
 356    5:00   0.00   57.6    96   11.4   325    15.4   1021.7    0.01 
 356    5:10   0.00   57.6    96   11.0   322    14.0   1022.0    0.00 
 356    5:20   0.00   57.2    96   10.9   320    14.1   1021.7    0.00 
 356    5:30   0.00   57.3    96   11.8   317    14.5   1021.7    0.00 
 356    5:40   0.00   57.7    96   11.7   320    15.3   1022.0    0.00 
 356    5:50   0.00   57.8    96   11.5   320    14.2   1022.0    0.00 
 356    6:00   0.00   57.8    96   11.1   315    14.2   1022.0    0.00 
 356    6:10   0.00   58.0    96    9.6   319    13.6   1022.0    0.00 
 356    6:20   0.00   58.1    96   10.3   324    14.1   1022.0    0.00 
 356    6:30   0.00   58.2    96   12.2   324    16.9   1022.0    0.00 
 356    6:40   0.00   58.0    96   12.1   323    17.5   1022.0    0.00 
 356    6:50   0.00   58.0    96   13.2   313    18.5   1022.0    0.00 
 356    7:00   0.00   57.9    96   13.6   311    17.7   1022.0    0.00 
 356    7:10   0.00   57.8    96   13.0   311    16.8   1021.7    0.00 
 356    7:20   0.00   57.7    96   13.9   307    18.9   1021.7    0.00 
 356    7:30   0.01   57.7    96   14.3   310    17.8   1022.0    0.00 
 356    7:40   0.01   57.7    96   14.4   314    19.1   1022.0    0.00 
 356    7:50   0.02   57.8    96   14.7   313    19.4   1021.7    0.00 
 356    8:00   0.05   58.0    96   12.8   317    16.7   1021.7    0.00 

Return to Bodega Marine Reserve graphs page.


Western Regional Climate Center,wrcc@dri.edu